createdAt,value
2018-04-06T10:24:42.767Z,100
2018-04-06T10:25:23.331Z,100
2018-04-06T10:26:03.951Z,100
2018-04-06T10:26:44.506Z,100
2018-04-06T10:27:25.059Z,95
2018-04-06T10:28:05.633Z,95
2018-04-06T10:28:46.254Z,95
2018-04-06T10:29:26.837Z,95
2018-04-06T10:30:07.463Z,95
2018-04-06T10:30:48.050Z,95
2018-04-06T10:31:28.637Z,95
2018-04-06T10:32:09.197Z,95
2018-04-06T10:32:49.779Z,95
2018-04-06T10:33:30.343Z,95
2018-04-06T10:34:10.895Z,95
2018-04-06T10:34:51.470Z,100
2018-04-06T10:35:32.029Z,95
2018-04-06T10:36:12.589Z,95
2018-04-06T10:36:53.226Z,95
2018-04-06T10:37:33.956Z,95
2018-04-06T10:38:14.535Z,95
2018-04-06T10:38:55.098Z,95
2018-04-06T10:39:35.665Z,95
2018-04-06T10:40:16.537Z,95
2018-04-06T10:40:57.115Z,95
2018-04-06T10:41:37.759Z,95
2018-04-06T10:42:18.305Z,95
2018-04-06T10:42:58.884Z,90
2018-04-06T10:43:39.472Z,90
2018-04-06T10:44:20.018Z,90
2018-04-06T10:45:00.617Z,90
2018-04-06T10:45:41.192Z,90
2018-04-06T10:46:21.742Z,90
2018-04-06T10:47:02.317Z,90
2018-04-06T10:47:42.891Z,90
2018-04-06T10:48:23.453Z,90
2018-04-06T10:49:04.053Z,90
2018-04-06T10:49:44.670Z,90
2018-04-06T10:50:25.316Z,90
2018-04-06T10:51:05.924Z,90
2018-04-06T10:51:46.482Z,90
2018-04-06T10:52:27.066Z,90
2018-04-06T10:53:07.661Z,90
2018-04-06T10:53:48.243Z,90
2018-04-06T10:54:28.823Z,85
2018-04-06T10:55:09.398Z,85
2018-04-06T10:55:49.957Z,85
2018-04-06T10:56:30.516Z,85
2018-04-06T10:57:11.081Z,85
2018-04-06T10:57:51.801Z,85
2018-04-06T10:58:32.536Z,85
2018-04-06T10:59:13.249Z,85
2018-04-06T10:59:54.119Z,85
2018-04-06T11:00:34.681Z,85
2018-04-06T11:01:15.240Z,85
2018-04-06T11:01:55.789Z,85
2018-04-06T11:02:36.366Z,85
2018-04-06T11:03:16.943Z,85
2018-04-06T11:03:57.518Z,85
2018-04-06T11:04:38.076Z,85
2018-04-06T11:05:18.651Z,85
2018-04-06T11:05:59.375Z,85
2018-04-06T11:06:39.944Z,85
2018-04-06T11:07:20.512Z,85
2018-04-06T11:08:01.099Z,85
2018-04-06T11:08:41.652Z,85
2018-04-06T11:09:22.202Z,85
2018-04-06T11:10:02.765Z,85
2018-04-06T11:10:43.319Z,85
2018-04-06T11:11:23.898Z,85
2018-04-06T11:12:04.479Z,85
2018-04-06T11:12:45.033Z,85
2018-04-06T11:13:25.586Z,85
2018-04-06T11:14:06.160Z,85
2018-04-06T11:14:46.715Z,85
2018-04-06T11:15:27.273Z,85
2018-04-06T11:16:07.825Z,85
2018-04-06T11:16:48.466Z,85
2018-04-06T11:17:29.031Z,85
2018-04-06T11:18:09.587Z,85
2018-04-06T11:18:50.196Z,90
2018-04-06T11:19:30.761Z,85
2018-04-06T11:20:11.385Z,85
2018-04-06T11:20:52.125Z,85
2018-04-06T11:21:32.691Z,85
2018-04-06T11:22:13.259Z,90
2018-04-06T11:22:53.851Z,85
2018-04-06T11:23:34.401Z,85
2018-04-06T11:24:14.994Z,90
2018-04-06T11:24:55.544Z,90
2018-04-06T11:25:36.102Z,90
2018-04-06T11:26:16.669Z,90
2018-04-06T11:26:57.234Z,90
2018-04-06T11:27:37.838Z,90
2018-04-06T11:28:18.415Z,95
2018-04-06T11:28:58.997Z,95
2018-04-06T11:29:39.594Z,90
2018-04-06T11:30:20.131Z,90
2018-04-06T11:31:00.692Z,90
2018-04-06T11:31:41.248Z,90
2018-04-06T11:32:21.829Z,90
2018-04-06T11:33:02.386Z,90
2018-04-06T11:33:42.937Z,90
2018-04-06T11:34:23.485Z,95
2018-04-06T11:35:04.071Z,95
2018-04-06T11:35:44.637Z,95
2018-04-06T11:36:25.198Z,95
2018-04-06T11:37:05.749Z,100
2018-04-06T11:37:46.321Z,95
2018-04-06T11:38:26.888Z,95
2018-04-06T11:39:07.458Z,95
2018-04-06T11:39:48.022Z,95
2018-04-06T11:40:28.575Z,100
2018-04-06T11:41:09.136Z,95
2018-04-06T11:41:49.687Z,95
2018-04-06T11:42:30.238Z,95
2018-04-06T11:43:10.822Z,95
2018-04-06T11:43:51.371Z,95
2018-04-06T11:44:31.937Z,95
2018-04-06T11:45:12.500Z,95
2018-04-06T11:45:53.060Z,95
2018-04-06T11:46:33.629Z,100
2018-04-06T11:47:14.184Z,100
2018-04-06T11:47:54.741Z,100
2018-04-06T11:48:35.555Z,100
2018-04-06T11:49:16.344Z,100
2018-04-06T11:49:56.904Z,100
2018-04-06T11:50:37.459Z,100
2018-04-06T11:51:18.033Z,100
2018-04-06T11:51:58.627Z,100
2018-04-06T11:52:39.241Z,100
2018-04-06T11:53:19.837Z,100
2018-04-06T11:54:00.421Z,100
2018-04-06T11:54:41.020Z,100
2018-04-06T11:55:21.602Z,100
2018-04-06T11:56:02.166Z,105
2018-04-06T11:56:42.759Z,105
2018-04-06T11:57:23.364Z,105
2018-04-06T11:58:03.961Z,105
2018-04-06T11:58:44.673Z,105
2018-04-06T11:59:25.246Z,105
2018-04-06T12:00:06.054Z,105
2018-04-06T12:00:46.884Z,105
2018-04-06T12:01:27.636Z,105
2018-04-06T12:02:08.167Z,105
2018-04-06T12:02:48.729Z,105
2018-04-06T12:03:29.291Z,105
2018-04-06T12:04:09.861Z,105
2018-04-06T12:04:50.416Z,105
2018-04-06T12:05:30.983Z,105
2018-04-06T12:06:11.629Z,105
2018-04-06T12:06:52.221Z,105
2018-04-06T12:07:32.781Z,110
2018-04-06T12:08:13.398Z,105
2018-04-06T12:08:53.967Z,105
2018-04-06T12:09:34.510Z,110
2018-04-06T12:10:15.092Z,105
2018-04-06T12:10:55.658Z,110
2018-04-06T12:11:36.225Z,110
2018-04-06T12:12:16.825Z,110
2018-04-06T12:12:57.388Z,110
2018-04-06T12:13:38.008Z,110
2018-04-06T12:14:18.564Z,110
2018-04-06T12:14:59.151Z,110
2018-04-06T12:15:39.728Z,110
2018-04-06T12:16:20.285Z,110
2018-04-06T12:17:00.856Z,110
2018-04-06T12:17:41.407Z,110
2018-04-06T12:18:21.968Z,110
2018-04-06T12:19:02.537Z,110
2018-04-06T12:19:43.090Z,110
2018-04-06T12:20:23.677Z,115
2018-04-06T12:21:04.624Z,115
2018-04-06T12:21:45.230Z,115
2018-04-06T12:22:25.833Z,115
2018-04-06T12:23:06.384Z,115
2018-04-06T12:23:47.001Z,115
2018-04-06T12:24:27.542Z,115
2018-04-06T12:25:08.118Z,120
2018-04-06T12:25:48.669Z,120
2018-04-06T12:26:29.289Z,115
2018-04-06T12:27:09.892Z,115
2018-04-06T12:27:50.503Z,115
2018-04-06T12:28:31.072Z,115
2018-04-06T12:29:11.629Z,120
2018-04-06T12:29:52.188Z,115
2018-04-06T12:30:32.749Z,115
2018-04-06T12:31:13.319Z,115
2018-04-06T12:31:53.872Z,115
2018-04-06T12:32:34.427Z,115
2018-04-06T12:33:14.993Z,115
2018-04-06T12:33:55.571Z,115
2018-04-06T12:34:36.218Z,115
2018-04-06T12:35:16.786Z,120
2018-04-06T12:35:57.350Z,115
2018-04-06T12:36:38.033Z,120
2018-04-06T12:37:18.868Z,120
2018-04-06T12:37:59.407Z,115
2018-04-06T12:38:39.964Z,115
2018-04-06T12:39:20.530Z,120
2018-04-06T12:40:01.107Z,120
2018-04-06T12:40:42.042Z,120
2018-04-06T12:41:22.936Z,120
2018-04-06T12:42:03.866Z,120
2018-04-06T12:42:44.626Z,120
2018-04-06T12:43:25.209Z,120
2018-04-06T12:44:06.476Z,120
2018-04-06T12:44:47.834Z,120
2018-04-06T12:45:28.506Z,120
2018-04-06T12:46:09.389Z,120
2018-04-06T12:46:50.183Z,125
2018-04-06T12:47:30.752Z,125
2018-04-06T12:48:11.320Z,125
2018-04-06T12:48:52.241Z,125
2018-04-06T12:49:33.130Z,125
2018-04-06T12:50:13.688Z,125
2018-04-06T12:50:54.244Z,125
2018-04-06T12:51:34.807Z,125
2018-04-06T12:52:15.356Z,125
2018-04-06T12:52:55.936Z,125
2018-04-06T12:53:36.521Z,125
2018-04-06T12:54:17.087Z,125
2018-04-06T12:54:57.703Z,125
2018-04-06T12:55:38.358Z,125
2018-04-06T12:56:19.045Z,125
2018-04-06T12:56:59.583Z,125
2018-04-06T12:57:40.156Z,125
2018-04-06T12:58:20.974Z,130
2018-04-06T12:59:01.569Z,130
2018-04-06T12:59:42.117Z,130
2018-04-06T13:00:22.686Z,130
2018-04-06T13:01:03.263Z,130
2018-04-06T13:01:44.029Z,135
2018-04-06T13:02:24.583Z,130
2018-04-06T13:03:05.139Z,130
2018-04-06T13:03:45.702Z,130
2018-04-06T13:04:26.271Z,130
2018-04-06T13:05:06.839Z,130
2018-04-06T13:05:47.442Z,130
2018-04-06T13:06:27.988Z,130
2018-04-06T13:07:08.582Z,130
2018-04-06T13:07:49.239Z,135
2018-04-06T13:08:29.815Z,135
2018-04-06T13:09:10.517Z,135
2018-04-06T13:09:51.094Z,135
2018-04-06T13:10:31.711Z,135
2018-04-06T13:11:12.213Z,135
2018-04-06T13:11:52.786Z,135
2018-04-06T13:12:33.427Z,135
2018-04-06T13:13:14.068Z,135
2018-04-06T13:13:54.637Z,135
2018-04-06T13:14:35.238Z,135
2018-04-06T13:15:15.833Z,135
2018-04-06T13:15:56.411Z,135
2018-04-06T13:16:36.974Z,135
2018-04-06T13:17:17.559Z,135
2018-04-06T13:17:58.167Z,135
2018-04-06T13:18:38.731Z,135
2018-04-06T13:19:19.319Z,135
2018-04-06T13:19:59.883Z,135
2018-04-06T13:20:40.450Z,135
2018-04-06T13:21:21.033Z,135
2018-04-06T13:22:01.634Z,135
2018-04-06T13:22:42.212Z,135
2018-04-06T13:23:22.812Z,135
2018-04-06T13:24:03.384Z,135
2018-04-06T13:24:44.044Z,135
2018-04-06T13:25:24.612Z,135
2018-04-06T13:26:05.165Z,135
2018-04-06T13:26:45.781Z,135
2018-04-06T13:27:26.404Z,135
2018-04-06T13:28:06.987Z,135
2018-04-06T13:28:47.559Z,135
2018-04-06T13:29:28.117Z,135
2018-04-06T13:30:08.698Z,135
2018-04-06T13:30:49.265Z,140
2018-04-06T13:31:29.862Z,135
2018-04-06T13:32:10.530Z,140
2018-04-06T13:32:51.114Z,140
2018-04-06T13:33:31.658Z,140
2018-04-06T13:34:12.230Z,140
2018-04-06T13:34:52.788Z,140
2018-04-06T13:35:33.386Z,140
2018-04-06T13:36:13.947Z,140
2018-04-06T13:36:54.506Z,140
2018-04-06T13:37:35.055Z,140
2018-04-06T13:38:15.659Z,140
2018-04-06T13:38:56.241Z,140
2018-04-06T13:39:36.805Z,140
2018-04-06T13:40:17.364Z,140
2018-04-06T13:40:57.930Z,140
2018-04-06T13:41:38.758Z,140
2018-04-06T13:42:19.293Z,140
2018-04-06T13:42:59.874Z,140
2018-04-06T13:43:40.462Z,140
2018-04-06T13:44:21.031Z,140
2018-04-06T13:45:01.596Z,140
2018-04-06T13:45:42.168Z,140
2018-04-06T13:46:22.721Z,140
2018-04-06T13:47:03.492Z,140
2018-04-06T13:47:44.020Z,140
2018-04-06T13:48:24.612Z,140
2018-04-06T13:49:05.163Z,140
2018-04-06T13:49:45.723Z,140
2018-04-06T13:50:26.322Z,140
2018-04-06T13:51:06.911Z,140
2018-04-06T13:51:47.480Z,140
2018-04-06T13:52:28.040Z,140
2018-04-06T13:53:08.646Z,140
2018-04-06T13:53:49.241Z,145
2018-04-06T13:54:29.857Z,145
2018-04-06T13:55:10.456Z,145
2018-04-06T13:55:51.038Z,145
2018-04-06T13:56:31.615Z,145
2018-04-06T13:57:12.190Z,145
2018-04-06T13:57:52.775Z,145
2018-04-06T13:58:33.348Z,145
2018-04-06T13:59:13.968Z,145
2018-04-06T13:59:54.551Z,145
2018-04-06T14:00:35.118Z,145
2018-04-06T14:01:15.741Z,145
2018-04-06T14:01:56.245Z,145
2018-04-06T14:02:36.870Z,145
2018-04-06T14:03:17.469Z,145
2018-04-06T14:03:58.085Z,145
2018-04-06T14:04:38.665Z,145
2018-04-06T14:05:19.234Z,145
2018-04-06T14:05:59.800Z,145
2018-04-06T14:06:40.393Z,145
2018-04-06T14:07:21.000Z,145
2018-04-06T14:08:01.582Z,145
2018-04-06T14:08:42.161Z,145
2018-04-06T14:09:23.226Z,145
2018-04-06T14:10:04.098Z,145
2018-04-06T14:10:44.913Z,145
2018-04-06T14:11:25.629Z,145
2018-04-06T14:12:06.196Z,145
2018-04-06T14:12:46.772Z,145
2018-04-06T14:13:27.333Z,145
2018-04-06T14:14:07.912Z,145
2018-04-06T14:14:48.488Z,145
2018-04-06T14:15:29.050Z,145
2018-04-06T14:16:09.629Z,145
2018-04-06T14:16:50.327Z,140
2018-04-06T14:17:30.901Z,140
2018-04-06T14:18:11.526Z,140
2018-04-06T14:18:52.114Z,140
2018-04-06T14:19:32.730Z,140
2018-04-06T14:20:13.296Z,140
2018-04-06T14:20:53.869Z,140
2018-04-06T14:21:34.464Z,140
2018-04-06T14:22:15.007Z,140
2018-04-06T14:22:55.577Z,140
2018-04-06T14:23:36.154Z,140
2018-04-06T14:24:16.731Z,140
2018-04-06T14:24:57.291Z,140
2018-04-06T14:25:37.856Z,140
2018-04-06T14:26:18.397Z,140
2018-04-06T14:26:58.962Z,140
2018-04-06T14:27:39.701Z,140
2018-04-06T14:28:20.278Z,140
2018-04-06T14:29:00.856Z,140
2018-04-06T14:29:41.482Z,140
2018-04-06T14:30:22.041Z,140
2018-04-06T14:31:02.738Z,145
2018-04-06T14:31:43.298Z,145
2018-04-06T14:32:23.924Z,145
2018-04-06T14:33:04.567Z,145
2018-04-06T14:33:45.138Z,145
2018-04-06T14:34:25.721Z,145
2018-04-06T14:35:06.278Z,145
2018-04-06T14:35:46.867Z,145
2018-04-06T14:36:27.442Z,145
2018-04-06T14:37:07.999Z,145
2018-04-06T14:37:48.584Z,145
2018-04-06T14:38:29.158Z,145
2018-04-06T14:39:09.743Z,145
2018-04-06T14:39:50.324Z,140
2018-04-06T14:40:30.889Z,140
2018-04-06T14:41:11.477Z,140
2018-04-06T14:41:52.052Z,140
2018-04-06T14:42:32.616Z,140
2018-04-06T14:43:13.188Z,140
2018-04-06T14:43:53.758Z,140
2018-04-06T14:44:34.355Z,140
2018-04-06T14:45:14.960Z,140
2018-04-06T14:45:55.587Z,140
2018-04-06T14:46:36.148Z,140
2018-04-06T14:47:16.722Z,140
2018-04-06T14:47:57.724Z,140
2018-04-06T14:48:38.295Z,140
2018-04-06T14:49:18.874Z,140
2018-04-06T14:49:59.461Z,140
2018-04-06T14:50:40.036Z,140
2018-04-06T14:51:20.608Z,140
2018-04-06T14:52:01.171Z,140
2018-04-06T14:52:41.733Z,140
2018-04-06T14:53:22.327Z,135
2018-04-06T14:54:02.905Z,135
2018-04-06T14:54:43.488Z,135
2018-04-06T14:55:24.063Z,135
2018-04-06T14:56:04.635Z,135
2018-04-06T14:56:45.202Z,135
2018-04-06T14:57:25.768Z,135
2018-04-06T14:58:06.376Z,135
2018-04-06T14:58:46.944Z,135
2018-04-06T14:59:27.522Z,135
2018-04-06T15:00:08.107Z,135
2018-04-06T15:00:48.649Z,135
2018-04-06T15:01:29.234Z,135
2018-04-06T15:02:09.803Z,135
2018-04-06T15:02:50.369Z,130
2018-04-06T15:03:30.941Z,130
2018-04-06T15:04:11.579Z,130
2018-04-06T15:04:52.145Z,130
2018-04-06T15:05:32.757Z,130
2018-04-06T15:06:13.326Z,130
2018-04-06T15:06:53.906Z,130
2018-04-06T15:07:34.523Z,130
2018-04-06T15:08:15.094Z,130
2018-04-06T15:08:55.660Z,130
2018-04-06T15:09:36.219Z,130
2018-04-06T15:10:16.779Z,130
2018-04-06T15:10:57.332Z,130
2018-04-06T15:11:37.956Z,125
2018-04-06T15:12:18.516Z,125
2018-04-06T15:12:59.079Z,125
2018-04-06T15:13:39.651Z,125
2018-04-06T15:14:20.262Z,125
2018-04-06T15:15:00.856Z,125
2018-04-06T15:15:41.433Z,125
2018-04-06T15:16:21.997Z,125
2018-04-06T15:17:02.574Z,125
2018-04-06T15:17:43.139Z,125
2018-04-06T15:18:23.721Z,125
2018-04-06T15:19:04.416Z,125
2018-04-06T15:19:45.062Z,125
2018-04-06T15:20:25.630Z,125
2018-04-06T15:21:06.224Z,125
2018-04-06T15:21:46.805Z,120
2018-04-06T15:22:27.405Z,120
2018-04-06T15:23:07.953Z,120
2018-04-06T15:23:48.557Z,120
2018-04-06T15:24:29.108Z,120
2018-04-06T15:25:09.664Z,115
2018-04-06T15:25:50.262Z,115
2018-04-06T15:26:30.811Z,115
2018-04-06T15:27:11.403Z,115
2018-04-06T15:27:51.961Z,115
2018-04-06T15:28:32.545Z,115
2018-04-06T15:29:13.124Z,115
2018-04-06T15:29:53.724Z,115
2018-04-06T15:30:34.296Z,115
2018-04-06T15:31:14.989Z,115
2018-04-06T15:31:55.618Z,115
2018-04-06T15:32:36.234Z,115
2018-04-06T15:33:16.804Z,110
2018-04-06T15:33:57.453Z,115
2018-04-06T15:34:38.052Z,115
2018-04-06T15:35:18.602Z,110
2018-04-06T15:35:59.171Z,110
2018-04-06T15:36:39.778Z,110
2018-04-06T15:37:20.359Z,110
2018-04-06T15:38:00.955Z,110
2018-04-06T15:38:41.504Z,110
2018-04-06T15:39:22.072Z,110
2018-04-06T15:40:02.643Z,110
2018-04-06T15:40:43.213Z,110
2018-04-06T15:41:23.780Z,110
2018-04-06T15:42:04.384Z,110
2018-04-06T15:42:44.966Z,110
2018-04-06T15:43:25.568Z,110
2018-04-06T15:44:06.118Z,110
2018-04-06T15:44:46.684Z,105
2018-04-06T15:45:27.271Z,105
2018-04-06T15:46:07.838Z,105
2018-04-06T15:46:48.395Z,110
2018-04-06T15:47:28.980Z,110
2018-04-06T15:48:09.542Z,135
2018-04-06T15:48:50.121Z,190
2018-04-06T15:49:30.738Z,205
2018-04-06T15:50:11.257Z,145
2018-04-06T15:50:51.889Z,105
2018-04-06T15:51:32.481Z,105
2018-04-06T15:52:13.054Z,115
2018-04-06T15:52:53.653Z,130
2018-04-06T15:53:34.267Z,155
2018-04-06T15:54:15.334Z,205
2018-04-06T15:54:55.984Z,205
2018-04-06T15:55:36.780Z,175
2018-04-06T15:56:17.387Z,145
2018-04-06T15:56:57.962Z,135
2018-04-06T15:57:38.524Z,125
2018-04-06T15:58:19.205Z,115
2018-04-06T15:58:59.988Z,105
2018-04-06T15:59:40.942Z,110
2018-04-06T16:00:21.807Z,125
2018-04-06T16:01:02.499Z,155
2018-04-06T16:01:43.404Z,195
2018-04-06T16:02:24.357Z,250
2018-04-06T16:03:04.993Z,275
2018-04-06T16:03:45.988Z,245
2018-04-06T16:04:26.893Z,190
2018-04-06T16:05:07.482Z,150
2018-04-06T16:05:48.290Z,125
2018-04-06T16:06:29.103Z,125
2018-04-06T16:07:10.080Z,165
2018-04-06T16:07:50.938Z,215
2018-04-06T16:08:31.506Z,250
2018-04-06T16:09:12.089Z,230
2018-04-06T16:09:52.935Z,205
2018-04-06T16:10:34.204Z,155
2018-04-06T16:11:14.941Z,130
2018-04-06T16:11:55.498Z,120
2018-04-06T16:12:36.621Z,145
2018-04-06T16:13:17.950Z,180
2018-04-06T16:13:58.986Z,220
2018-04-06T16:14:40.018Z,250
2018-04-06T16:15:20.605Z,245
2018-04-06T16:16:01.171Z,180
2018-04-06T16:16:41.873Z,125
2018-04-06T16:17:22.631Z,90
2018-04-06T16:18:03.197Z,75
2018-04-06T16:18:44.110Z,75
2018-04-06T16:19:25.219Z,75
2018-04-06T16:20:07.110Z,75
2018-04-06T16:20:48.345Z,70
2018-04-06T16:21:29.559Z,70
2018-04-06T16:22:10.508Z,70
2018-04-06T16:22:51.515Z,70
2018-04-06T16:23:32.564Z,70
2018-04-06T16:24:13.440Z,70
2018-04-06T16:24:54.167Z,70
2018-04-06T16:25:35.278Z,70
2018-04-06T16:26:16.642Z,70
2018-04-06T16:26:57.574Z,70
2018-04-06T16:27:38.494Z,70
2018-04-06T16:28:19.504Z,70
2018-04-06T16:29:00.264Z,70
2018-04-06T16:29:41.297Z,70
2018-04-06T16:30:22.452Z,70
2018-04-06T16:31:03.504Z,65
2018-04-06T16:31:44.671Z,65
2018-04-06T16:32:25.823Z,65
2018-04-06T16:33:06.829Z,65
2018-04-06T16:33:48.230Z,65
2018-04-06T16:34:28.882Z,60
2018-04-06T16:35:09.748Z,60
2018-04-06T16:35:50.644Z,60
2018-04-06T16:36:31.754Z,65
2018-04-06T16:37:12.621Z,70
2018-04-06T16:37:53.176Z,75
2018-04-06T16:38:34.019Z,80
2018-04-06T16:39:15.646Z,85
2018-04-06T16:39:56.221Z,120
2018-04-06T16:40:36.796Z,135
2018-04-06T16:41:17.392Z,130
2018-04-06T16:41:58.030Z,110
2018-04-06T16:42:38.600Z,85
2018-04-06T16:43:19.172Z,70
2018-04-06T16:43:59.742Z,55
2018-04-06T16:44:40.340Z,50
2018-04-06T16:45:20.907Z,50
2018-04-06T16:46:01.518Z,50
2018-04-06T16:46:42.464Z,50
2018-04-06T16:47:23.584Z,50
2018-04-06T16:48:04.303Z,50
2018-04-06T16:48:44.891Z,45
2018-04-06T16:49:25.475Z,45
2018-04-06T16:50:06.043Z,45
2018-04-06T16:50:46.771Z,45
2018-04-06T16:51:27.329Z,40
2018-04-06T16:52:07.941Z,40
2018-04-06T16:52:48.512Z,40
2018-04-06T16:53:29.065Z,40
2018-04-06T16:54:09.700Z,40
2018-04-06T16:54:50.266Z,40
2018-04-06T16:55:30.862Z,35
2018-04-06T16:56:11.435Z,35
2018-04-06T16:56:52.029Z,35
2018-04-06T16:57:32.592Z,30
2018-04-06T16:58:13.172Z,30
2018-04-06T16:58:53.736Z,30
2018-04-06T16:59:34.398Z,30
2018-04-06T17:00:14.964Z,30
2018-04-06T17:00:55.582Z,35
2018-04-06T17:01:36.150Z,35
2018-04-06T17:02:16.713Z,30
2018-04-06T17:02:57.274Z,30
2018-04-06T17:03:37.851Z,30
2018-04-06T17:04:18.432Z,30
2018-04-06T17:04:59.200Z,30
2018-04-06T17:05:39.755Z,30
2018-04-06T17:06:20.414Z,30
2018-04-06T17:07:00.984Z,25
2018-04-06T17:07:41.582Z,25
2018-04-06T17:08:22.151Z,25
2018-04-06T17:09:02.718Z,25
2018-04-06T17:09:43.343Z,25
2018-04-06T17:10:23.919Z,25
2018-04-06T17:11:04.540Z,25
2018-04-06T17:11:45.120Z,20
2018-04-06T17:12:25.790Z,20
2018-04-06T17:13:06.438Z,20
2018-04-06T17:13:46.938Z,20
2018-04-06T17:14:27.600Z,20
2018-04-06T17:15:08.166Z,20
2018-04-06T17:15:48.751Z,20
2018-04-06T17:16:29.433Z,20
2018-04-06T17:17:10.082Z,20
2018-04-06T17:17:50.604Z,20
2018-04-06T17:18:31.175Z,20
2018-04-06T17:19:11.762Z,15
2018-04-06T17:19:52.378Z,15
2018-04-06T17:20:32.942Z,15
2018-04-06T17:21:13.645Z,15
2018-04-06T17:21:54.200Z,15
2018-04-06T17:22:34.766Z,15
2018-04-06T17:23:15.446Z,15
2018-04-06T17:23:56.021Z,15
2018-04-06T17:24:36.602Z,15
2018-04-06T17:25:17.211Z,15
2018-04-06T17:25:57.802Z,15
2018-04-06T17:26:38.482Z,10
2018-04-06T17:27:19.069Z,10
2018-04-06T17:27:59.635Z,10
2018-04-06T17:28:40.227Z,10
2018-04-06T17:29:20.803Z,10
2018-04-06T17:30:01.452Z,10
2018-04-06T17:30:42.053Z,10
2018-04-06T17:31:22.646Z,10
2018-04-06T17:32:03.274Z,10
2018-04-06T17:32:43.885Z,10
2018-04-06T17:33:24.459Z,5
2018-04-06T17:34:05.060Z,5
2018-04-06T17:34:45.806Z,5
2018-04-06T17:35:26.392Z,5
2018-04-06T17:36:06.988Z,5
2018-04-06T17:36:47.569Z,5
2018-04-06T17:37:28.166Z,5
2018-04-06T17:38:08.703Z,5
2018-04-06T17:38:49.380Z,5
2018-04-06T17:39:29.943Z,5
2018-04-06T17:40:10.537Z,5
2018-04-06T17:40:51.096Z,5
2018-04-06T17:41:31.691Z,5
2018-04-06T17:42:12.282Z,5
2018-04-06T17:42:52.844Z,5
2018-04-06T17:43:33.439Z,0
2018-04-06T17:44:14.046Z,0
2018-04-06T17:44:54.600Z,0
2018-04-06T17:45:35.153Z,0
2018-04-06T17:46:16.124Z,0
2018-04-06T17:46:56.693Z,0
2018-04-06T17:47:37.319Z,0
2018-04-06T17:48:17.891Z,0
2018-04-06T17:48:58.520Z,0
2018-04-06T17:49:39.108Z,0
2018-04-06T17:50:19.694Z,0
2018-04-06T17:51:00.268Z,0
2018-04-06T17:51:40.971Z,0
2018-04-06T17:52:21.441Z,0
2018-04-06T17:53:02.002Z,0
2018-04-06T17:53:42.563Z,0
2018-04-06T17:54:23.116Z,0
2018-04-06T17:55:03.674Z,0
2018-04-06T17:55:44.238Z,0
2018-04-06T17:56:24.804Z,0
2018-04-06T17:57:05.401Z,0
2018-04-06T17:57:45.940Z,0
2018-04-06T17:58:26.502Z,0
2018-04-06T17:59:07.073Z,0
2018-04-06T17:59:47.630Z,0
2018-04-06T18:00:28.226Z,0
2018-04-06T18:01:08.796Z,0
2018-04-06T18:01:49.379Z,0
2018-04-06T18:02:29.947Z,0
2018-04-06T18:03:10.519Z,0
2018-04-06T18:03:51.083Z,0
2018-04-06T18:04:31.653Z,0
2018-04-06T18:05:12.260Z,0
2018-04-06T18:05:52.999Z,0
2018-04-06T18:06:33.586Z,0
2018-04-06T18:07:14.158Z,0
2018-04-06T18:07:54.718Z,0
2018-04-06T18:08:35.283Z,0
2018-04-06T18:09:15.879Z,0
2018-04-06T18:09:56.483Z,0
2018-04-06T18:10:37.047Z,0
2018-04-06T18:11:17.622Z,0
2018-04-06T18:11:58.183Z,0
2018-04-06T18:12:38.747Z,0
2018-04-06T18:13:19.325Z,0
2018-04-06T18:14:00.238Z,0
2018-04-06T18:14:41.308Z,0
2018-04-06T18:15:22.543Z,0
2018-04-06T18:16:03.882Z,0
2018-04-06T18:16:45.716Z,0
2018-04-06T18:17:27.039Z,0
2018-04-06T18:18:08.139Z,0
2018-04-06T18:18:49.164Z,0
2018-04-06T18:19:30.164Z,0
2018-04-06T18:20:11.407Z,0
2018-04-06T18:20:53.271Z,0
2018-04-06T18:21:34.575Z,0
2018-04-06T18:22:15.824Z,0
2018-04-06T18:22:57.098Z,0
2018-04-06T18:23:38.192Z,0
2018-04-06T18:24:19.330Z,0
2018-04-06T18:25:00.605Z,0
2018-04-06T18:25:41.871Z,0
2018-04-06T18:26:23.229Z,0
2018-04-06T18:27:04.505Z,0
2018-04-06T18:27:45.590Z,0
2018-04-06T18:28:26.885Z,0
2018-04-06T18:29:08.832Z,0
2018-04-06T18:29:50.188Z,0
2018-04-06T18:30:31.355Z,0
2018-04-06T18:31:12.607Z,0
2018-04-06T18:31:53.875Z,0
2018-04-06T18:32:35.175Z,0
2018-04-06T18:33:16.387Z,0
2018-04-06T18:33:57.620Z,0
2018-04-06T18:34:38.727Z,0
2018-04-06T18:35:20.015Z,0
2018-04-06T18:36:02.097Z,0
2018-04-06T18:36:43.176Z,0
2018-04-06T18:37:24.135Z,0
2018-04-06T18:38:05.527Z,0
2018-04-06T18:38:47.274Z,0
2018-04-06T18:39:28.604Z,0
2018-04-06T18:40:09.414Z,0
2018-04-06T18:40:50.580Z,0
2018-04-06T18:41:31.442Z,0
2018-04-06T18:42:12.327Z,0
2018-04-06T18:42:53.560Z,0
2018-04-06T18:43:34.640Z,0
2018-04-06T18:44:15.483Z,0
2018-04-06T18:44:56.491Z,0
2018-04-06T18:45:37.502Z,0
2018-04-06T18:46:18.777Z,0
2018-04-06T18:46:59.933Z,0
2018-04-06T18:47:40.942Z,0
2018-04-06T18:48:21.840Z,0
2018-04-06T18:49:02.678Z,0
2018-04-06T18:49:43.774Z,0
2018-04-06T18:50:25.034Z,0
2018-04-06T18:51:07.390Z,0
2018-04-06T18:51:48.687Z,0
2018-04-06T18:52:29.751Z,0
2018-04-06T18:53:10.748Z,0
2018-04-06T18:53:51.843Z,0
2018-04-06T18:54:33.139Z,0
2018-04-06T18:55:13.934Z,0
2018-04-06T18:55:55.161Z,0
2018-04-06T18:56:36.024Z,0
2018-04-06T18:57:17.125Z,0
2018-04-06T18:57:58.231Z,0
2018-04-06T18:58:39.439Z,0
2018-04-06T18:59:20.009Z,0
2018-04-06T19:00:00.594Z,0
2018-04-06T19:00:41.477Z,0
2018-04-06T19:01:22.650Z,0
2018-04-06T19:02:03.241Z,0
2018-04-06T19:02:44.642Z,0
2018-04-06T19:03:25.789Z,0
2018-04-06T19:04:07.071Z,0
2018-04-06T19:04:48.146Z,0
2018-04-06T19:05:28.698Z,0
2018-04-06T19:06:09.274Z,0
2018-04-06T19:06:49.829Z,0
2018-04-06T19:07:30.387Z,0
2018-04-06T19:08:11.022Z,0
2018-04-06T19:08:51.639Z,0
2018-04-06T19:09:32.166Z,0
2018-04-06T19:10:12.765Z,0
2018-04-06T19:10:53.443Z,0
2018-04-06T19:11:34.947Z,0
2018-04-06T19:12:15.557Z,0
2018-04-06T19:12:56.126Z,0
2018-04-06T19:13:36.730Z,0
2018-04-06T19:14:17.619Z,0
2018-04-06T19:14:58.193Z,0
2018-04-06T19:15:38.770Z,0
2018-04-06T19:16:19.373Z,0
2018-04-06T19:16:59.897Z,0
2018-04-06T19:17:40.470Z,0
2018-04-06T19:18:21.049Z,0
2018-04-06T19:19:01.646Z,0
2018-04-06T19:19:42.211Z,0
2018-04-06T19:20:22.947Z,0
2018-04-06T19:21:03.834Z,0
2018-04-06T19:21:45.054Z,0
2018-04-06T19:22:25.868Z,0
2018-04-06T19:23:06.459Z,0
2018-04-06T19:23:47.017Z,0
2018-04-06T19:24:27.811Z,0
2018-04-06T19:25:08.386Z,0
2018-04-06T19:25:49.186Z,0
2018-04-06T19:26:29.772Z,0
2018-04-06T19:27:10.367Z,0
2018-04-06T19:27:50.951Z,0
2018-04-06T19:28:31.621Z,0
2018-04-06T19:29:12.222Z,0
2018-04-06T19:29:52.788Z,0
2018-04-06T19:30:33.370Z,0
2018-04-06T19:31:13.979Z,0
2018-04-06T19:31:54.567Z,0
2018-04-06T19:32:35.131Z,0
2018-04-06T19:33:15.728Z,0
2018-04-06T19:33:56.317Z,0
2018-04-06T19:34:36.907Z,0
2018-04-06T19:35:17.475Z,0
2018-04-06T19:35:58.034Z,0
2018-04-06T19:36:38.616Z,0
2018-04-06T19:37:19.301Z,0
2018-04-06T19:37:59.861Z,0
2018-04-06T19:38:40.436Z,0
2018-04-06T19:39:20.999Z,0
2018-04-06T19:40:01.588Z,0
2018-04-06T19:40:42.231Z,0
2018-04-06T19:41:22.783Z,0
2018-04-06T19:42:03.377Z,0
2018-04-06T19:42:43.954Z,0
2018-04-06T19:43:24.512Z,0
2018-04-06T19:44:05.083Z,0
2018-04-06T19:44:45.642Z,0
2018-04-06T19:45:26.216Z,0
2018-04-06T19:46:06.793Z,0
2018-04-06T19:46:47.372Z,0
2018-04-06T19:47:27.933Z,0
2018-04-06T19:48:08.510Z,0
2018-04-06T19:48:49.139Z,0
2018-04-06T19:49:29.753Z,0
2018-04-06T19:50:10.289Z,0
2018-04-06T19:50:50.915Z,0
2018-04-06T19:51:31.479Z,0
2018-04-06T19:52:12.089Z,0
2018-04-06T19:52:52.670Z,0
2018-04-06T19:53:33.238Z,0
2018-04-06T19:54:13.845Z,0
2018-04-06T19:54:54.422Z,0
2018-04-06T19:55:34.993Z,0
2018-04-06T19:56:15.552Z,0
2018-04-06T19:56:56.117Z,0
2018-04-06T19:57:36.684Z,0
2018-04-06T19:58:17.241Z,0
2018-04-06T19:58:57.855Z,0
2018-04-06T19:59:38.486Z,0